sensor_id;sensor_type;location;lat;lon;timestamp;P1;durP1;ratioP1;P2;durP2;ratioP2
22166;SDS011;11249;52.468;13.776;2022-12-18T00:02:14;48.33;;;21.63;;
22166;SDS011;11249;52.468;13.776;2022-12-18T00:04:47;45.03;;;21.27;;
22166;SDS011;11249;52.468;13.776;2022-12-18T00:07:13;46.27;;;21.83;;
22166;SDS011;11249;52.468;13.776;2022-12-18T00:09:47;57.57;;;23.63;;
22166;SDS011;11249;52.468;13.776;2022-12-18T00:12:26;52.00;;;23.17;;
22166;SDS011;11249;52.468;13.776;2022-12-18T00:15:07;51.97;;;22.80;;
22166;SDS011;11249;52.468;13.776;2022-12-18T00:17:40;50.30;;;23.00;;
22166;SDS011;11249;52.468;13.776;2022-12-18T00:20:13;51.37;;;22.30;;
22166;SDS011;11249;52.468;13.776;2022-12-18T00:22:39;51.53;;;23.30;;
22166;SDS011;11249;52.468;13.776;2022-12-18T00:25:13;45.53;;;21.63;;
22166;SDS011;11249;52.468;13.776;2022-12-18T00:27:46;49.73;;;23.20;;
22166;SDS011;11249;52.468;13.776;2022-12-18T00:30:19;50.87;;;22.13;;
22166;SDS011;11249;52.468;13.776;2022-12-18T00:32:52;44.03;;;21.30;;
22166;SDS011;11249;52.468;13.776;2022-12-18T00:35:25;48.53;;;20.93;;
22166;SDS011;11249;52.468;13.776;2022-12-18T00:37:51;55.33;;;23.17;;
22166;SDS011;11249;52.468;13.776;2022-12-18T00:40:25;52.70;;;22.43;;
22166;SDS011;11249;52.468;13.776;2022-12-18T00:42:51;51.50;;;23.60;;
22166;SDS011;11249;52.468;13.776;2022-12-18T00:45:28;48.83;;;21.90;;
22166;SDS011;11249;52.468;13.776;2022-12-18T00:48:03;45.23;;;21.10;;
22166;SDS011;11249;52.468;13.776;2022-12-18T00:50:36;44.60;;;21.27;;
22166;SDS011;11249;52.468;13.776;2022-12-18T00:53:02;49.13;;;21.67;;
22166;SDS011;11249;52.468;13.776;2022-12-18T00:55:29;50.57;;;21.17;;
22166;SDS011;11249;52.468;13.776;2022-12-18T00:58:03;48.97;;;20.50;;
22166;SDS011;11249;52.468;13.776;2022-12-18T01:00:36;43.13;;;19.87;;
22166;SDS011;11249;52.468;13.776;2022-12-18T01:03:04;42.67;;;18.40;;
22166;SDS011;11249;52.468;13.776;2022-12-18T01:05:38;39.10;;;17.87;;
22166;SDS011;11249;52.468;13.776;2022-12-18T01:08:13;37.77;;;16.43;;
22166;SDS011;11249;52.468;13.776;2022-12-18T01:10:40;41.90;;;16.50;;
22166;SDS011;11249;52.468;13.776;2022-12-18T01:13:20;35.07;;;16.17;;
22166;SDS011;11249;52.468;13.776;2022-12-18T01:15:48;40.27;;;17.53;;
22166;SDS011;11249;52.468;13.776;2022-12-18T01:18:22;44.40;;;18.30;;
22166;SDS011;11249;52.468;13.776;2022-12-18T01:20:48;42.37;;;18.40;;
22166;SDS011;11249;52.468;13.776;2022-12-18T01:23:22;40.60;;;18.47;;
22166;SDS011;11249;52.468;13.776;2022-12-18T01:25:48;44.47;;;19.63;;
22166;SDS011;11249;52.468;13.776;2022-12-18T01:28:22;40.20;;;18.33;;
22166;SDS011;11249;52.468;13.776;2022-12-18T01:30:48;44.03;;;19.13;;
22166;SDS011;11249;52.468;13.776;2022-12-18T01:33:22;38.63;;;18.33;;
22166;SDS011;11249;52.468;13.776;2022-12-18T01:35:48;42.37;;;18.47;;
22166;SDS011;11249;52.468;13.776;2022-12-18T01:38:22;41.10;;;17.73;;
22166;SDS011;11249;52.468;13.776;2022-12-18T01:40:48;42.97;;;18.23;;
22166;SDS011;11249;52.468;13.776;2022-12-18T01:43:22;42.37;;;19.43;;
22166;SDS011;11249;52.468;13.776;2022-12-18T01:45:55;43.30;;;18.40;;
22166;SDS011;11249;52.468;13.776;2022-12-18T01:48:26;40.17;;;18.13;;
22166;SDS011;11249;52.468;13.776;2022-12-18T01:50:52;45.47;;;19.40;;
22166;SDS011;11249;52.468;13.776;2022-12-18T01:53:26;46.13;;;20.87;;
22166;SDS011;11249;52.468;13.776;2022-12-18T01:55:59;48.30;;;21.23;;
22166;SDS011;11249;52.468;13.776;2022-12-18T02:01:36;39.40;;;17.63;;
22166;SDS011;11249;52.468;13.776;2022-12-18T02:04:31;45.43;;;20.53;;
22166;SDS011;11249;52.468;13.776;2022-12-18T02:07:07;44.73;;;20.37;;
22166;SDS011;11249;52.468;13.776;2022-12-18T02:10:03;46.40;;;19.70;;
22166;SDS011;11249;52.468;13.776;2022-12-18T02:12:42;46.77;;;20.53;;
22166;SDS011;11249;52.468;13.776;2022-12-18T02:15:26;41.50;;;18.87;;
22166;SDS011;11249;52.468;13.776;2022-12-18T02:18:05;49.20;;;21.85;;
22166;SDS011;11249;52.468;13.776;2022-12-18T02:23:36;48.37;;;20.50;;
22166;SDS011;11249;52.468;13.776;2022-12-18T02:26:37;43.90;;;19.30;;
22166;SDS011;11249;52.468;13.776;2022-12-18T02:29:21;46.53;;;22.07;;
22166;SDS011;11249;52.468;13.776;2022-12-18T02:32:00;44.20;;;20.00;;
22166;SDS011;11249;52.468;13.776;2022-12-18T02:34:36;47.33;;;21.87;;
22166;SDS011;11249;52.468;13.776;2022-12-18T02:37:07;48.70;;;21.58;;
22166;SDS011;11249;52.468;13.776;2022-12-18T02:39:44;48.33;;;21.57;;
22166;SDS011;11249;52.468;13.776;2022-12-18T02:42:13;46.50;;;20.35;;
22166;SDS011;11249;52.468;13.776;2022-12-18T02:44:44;54.27;;;22.30;;
22166;SDS011;11249;52.468;13.776;2022-12-18T02:47:22;46.93;;;22.27;;
22166;SDS011;11249;52.468;13.776;2022-12-18T02:49:58;47.27;;;21.30;;
22166;SDS011;11249;52.468;13.776;2022-12-18T02:55:54;44.10;;;20.10;;
22166;SDS011;11249;52.468;13.776;2022-12-18T03:01:50;49.20;;;22.33;;
22166;SDS011;11249;52.468;13.776;2022-12-18T03:04:43;53.40;;;22.47;;
22166;SDS011;11249;52.468;13.776;2022-12-18T03:07:30;51.17;;;20.57;;
22166;SDS011;11249;52.468;13.776;2022-12-18T03:10:23;50.33;;;21.33;;
22166;SDS011;11249;52.468;13.776;2022-12-18T03:13:02;46.83;;;21.47;;
22166;SDS011;11249;52.468;13.776;2022-12-18T03:15:52;51.00;;;20.63;;
22166;SDS011;11249;52.468;13.776;2022-12-18T03:19:11;46.20;;;20.47;;
22166;SDS011;11249;52.468;13.776;2022-12-18T03:21:22;56.80;;;22.08;;
22166;SDS011;11249;52.468;13.776;2022-12-18T03:24:09;49.47;;;22.17;;
22166;SDS011;11249;52.468;13.776;2022-12-18T03:26:44;50.43;;;21.77;;
22166;SDS011;11249;52.468;13.776;2022-12-18T03:29:27;50.97;;;19.53;;
22166;SDS011;11249;52.468;13.776;2022-12-18T03:32:08;51.63;;;21.80;;
22166;SDS011;11249;52.468;13.776;2022-12-18T03:34:47;46.43;;;21.27;;
22166;SDS011;11249;52.468;13.776;2022-12-18T03:37:23;53.37;;;23.27;;
22166;SDS011;11249;52.468;13.776;2022-12-18T03:39:56;50.77;;;22.70;;
22166;SDS011;11249;52.468;13.776;2022-12-18T03:42:27;51.77;;;21.50;;
22166;SDS011;11249;52.468;13.776;2022-12-18T03:56:11;44.83;;;18.27;;
22166;SDS011;11249;52.468;13.776;2022-12-18T03:58:48;37.07;;;17.23;;
22166;SDS011;11249;52.468;13.776;2022-12-18T04:01:25;35.53;;;17.03;;
22166;SDS011;11249;52.468;13.776;2022-12-18T04:03:55;42.30;;;17.37;;
22166;SDS011;11249;52.468;13.776;2022-12-18T04:06:31;45.03;;;18.67;;
22166;SDS011;11249;52.468;13.776;2022-12-18T04:09:08;38.97;;;17.20;;
22166;SDS011;11249;52.468;13.776;2022-12-18T04:11:34;38.57;;;17.70;;
22166;SDS011;11249;52.468;13.776;2022-12-18T04:14:08;42.40;;;18.83;;
22166;SDS011;11249;52.468;13.776;2022-12-18T04:16:48;42.83;;;18.47;;
22166;SDS011;11249;52.468;13.776;2022-12-18T04:19:21;38.73;;;18.40;;
22166;SDS011;11249;52.468;13.776;2022-12-18T04:21:47;46.17;;;19.77;;
22166;SDS011;11249;52.468;13.776;2022-12-18T04:24:21;45.47;;;18.43;;
22166;SDS011;11249;52.468;13.776;2022-12-18T04:26:47;41.10;;;18.07;;
22166;SDS011;11249;52.468;13.776;2022-12-18T04:29:21;42.70;;;17.83;;
22166;SDS011;11249;52.468;13.776;2022-12-18T04:31:54;43.93;;;17.73;;
22166;SDS011;11249;52.468;13.776;2022-12-18T04:34:27;45.97;;;19.57;;
22166;SDS011;11249;52.468;13.776;2022-12-18T04:36:54;42.80;;;19.43;;
22166;SDS011;11249;52.468;13.776;2022-12-18T04:39:21;46.30;;;19.63;;
22166;SDS011;11249;52.468;13.776;2022-12-18T04:41:55;48.70;;;19.20;;
22166;SDS011;11249;52.468;13.776;2022-12-18T04:44:22;47.80;;;20.43;;
22166;SDS011;11249;52.468;13.776;2022-12-18T04:46:55;40.97;;;19.00;;
22166;SDS011;11249;52.468;13.776;2022-12-18T04:49:21;46.53;;;20.37;;
22166;SDS011;11249;52.468;13.776;2022-12-18T04:51:55;46.47;;;19.60;;
22166;SDS011;11249;52.468;13.776;2022-12-18T04:54:21;43.37;;;19.30;;
22166;SDS011;11249;52.468;13.776;2022-12-18T04:56:55;43.90;;;20.47;;
22166;SDS011;11249;52.468;13.776;2022-12-18T04:59:21;45.53;;;21.13;;
22166;SDS011;11249;52.468;13.776;2022-12-18T05:01:55;48.87;;;19.83;;
22166;SDS011;11249;52.468;13.776;2022-12-18T05:04:21;43.33;;;19.37;;
22166;SDS011;11249;52.468;13.776;2022-12-18T05:06:55;42.80;;;19.13;;
22166;SDS011;11249;52.468;13.776;2022-12-18T05:09:22;44.23;;;18.93;;
22166;SDS011;11249;52.468;13.776;2022-12-18T05:11:49;43.77;;;20.43;;
22166;SDS011;11249;52.468;13.776;2022-12-18T05:14:28;44.97;;;19.23;;
22166;SDS011;11249;52.468;13.776;2022-12-18T05:17:09;37.90;;;17.10;;
22166;SDS011;11249;52.468;13.776;2022-12-18T05:19:42;45.23;;;18.60;;
22166;SDS011;11249;52.468;13.776;2022-12-18T05:22:15;48.07;;;20.50;;
22166;SDS011;11249;52.468;13.776;2022-12-18T05:24:41;45.60;;;17.93;;
22166;SDS011;11249;52.468;13.776;2022-12-18T05:27:08;40.63;;;18.57;;
22166;SDS011;11249;52.468;13.776;2022-12-18T05:29:41;42.40;;;19.97;;
22166;SDS011;11249;52.468;13.776;2022-12-18T05:32:07;45.10;;;19.73;;
22166;SDS011;11249;52.468;13.776;2022-12-18T05:34:34;40.70;;;19.23;;
22166;SDS011;11249;52.468;13.776;2022-12-18T05:37:07;42.63;;;18.20;;
22166;SDS011;11249;52.468;13.776;2022-12-18T05:39:33;44.53;;;18.90;;
22166;SDS011;11249;52.468;13.776;2022-12-18T05:42:07;41.00;;;17.77;;
22166;SDS011;11249;52.468;13.776;2022-12-18T05:44:33;37.93;;;17.10;;
22166;SDS011;11249;52.468;13.776;2022-12-18T05:47:07;37.43;;;16.67;;
22166;SDS011;11249;52.468;13.776;2022-12-18T05:49:40;36.73;;;17.70;;
22166;SDS011;11249;52.468;13.776;2022-12-18T05:52:13;39.60;;;17.97;;
22166;SDS011;11249;52.468;13.776;2022-12-18T05:54:46;43.50;;;19.50;;
22166;SDS011;11249;52.468;13.776;2022-12-18T05:57:12;37.47;;;16.67;;
22166;SDS011;11249;52.468;13.776;2022-12-18T05:59:46;44.57;;;18.07;;
22166;SDS011;11249;52.468;13.776;2022-12-18T06:02:12;43.97;;;18.00;;
22166;SDS011;11249;52.468;13.776;2022-12-18T06:04:46;40.13;;;17.20;;
22166;SDS011;11249;52.468;13.776;2022-12-18T06:07:20;38.13;;;17.87;;
22166;SDS011;11249;52.468;13.776;2022-12-18T06:09:46;46.70;;;17.50;;
22166;SDS011;11249;52.468;13.776;2022-12-18T06:12:20;42.60;;;17.47;;
22166;SDS011;11249;52.468;13.776;2022-12-18T06:14:53;48.63;;;19.20;;
22166;SDS011;11249;52.468;13.776;2022-12-18T06:17:28;47.33;;;18.90;;
22166;SDS011;11249;52.468;13.776;2022-12-18T06:19:58;43.83;;;17.80;;
22166;SDS011;11249;52.468;13.776;2022-12-18T06:22:25;47.37;;;19.27;;
22166;SDS011;11249;52.468;13.776;2022-12-18T06:24:59;44.17;;;18.37;;
22166;SDS011;11249;52.468;13.776;2022-12-18T06:27:25;45.97;;;19.83;;
22166;SDS011;11249;52.468;13.776;2022-12-18T06:29:59;40.80;;;18.40;;
22166;SDS011;11249;52.468;13.776;2022-12-18T06:32:26;42.10;;;18.33;;
22166;SDS011;11249;52.468;13.776;2022-12-18T06:35:00;48.50;;;21.00;;
22166;SDS011;11249;52.468;13.776;2022-12-18T06:37:33;55.07;;;19.23;;
22166;SDS011;11249;52.468;13.776;2022-12-18T06:39:59;47.93;;;18.57;;
22166;SDS011;11249;52.468;13.776;2022-12-18T06:42:33;47.10;;;20.00;;
22166;SDS011;11249;52.468;13.776;2022-12-18T06:44:59;46.07;;;20.13;;
22166;SDS011;11249;52.468;13.776;2022-12-18T06:47:26;44.63;;;19.23;;
22166;SDS011;11249;52.468;13.776;2022-12-18T06:49:59;50.03;;;20.10;;
22166;SDS011;11249;52.468;13.776;2022-12-18T06:52:25;48.50;;;20.30;;
22166;SDS011;11249;52.468;13.776;2022-12-18T06:54:59;48.57;;;21.33;;
22166;SDS011;11249;52.468;13.776;2022-12-18T06:57:25;50.80;;;21.17;;
22166;SDS011;11249;52.468;13.776;2022-12-18T06:59:59;53.33;;;21.07;;
22166;SDS011;11249;52.468;13.776;2022-12-18T07:02:25;51.93;;;20.40;;
22166;SDS011;11249;52.468;13.776;2022-12-18T07:04:59;59.30;;;22.70;;
22166;SDS011;11249;52.468;13.776;2022-12-18T07:07:36;52.00;;;21.60;;
22166;SDS011;11249;52.468;13.776;2022-12-18T07:10:09;47.33;;;19.83;;
22166;SDS011;11249;52.468;13.776;2022-12-18T07:12:36;50.20;;;19.47;;
22166;SDS011;11249;52.468;13.776;2022-12-18T07:15:22;53.73;;;20.03;;
22166;SDS011;11249;52.468;13.776;2022-12-18T07:17:56;52.93;;;20.63;;
22166;SDS011;11249;52.468;13.776;2022-12-18T07:20:22;55.23;;;21.03;;
22166;SDS011;11249;52.468;13.776;2022-12-18T07:22:56;55.23;;;20.17;;
22166;SDS011;11249;52.468;13.776;2022-12-18T07:25:29;48.87;;;20.13;;
22166;SDS011;11249;52.468;13.776;2022-12-18T07:27:55;50.80;;;20.87;;
22166;SDS011;11249;52.468;13.776;2022-12-18T07:30:29;62.13;;;23.80;;
22166;SDS011;11249;52.468;13.776;2022-12-18T07:32:56;56.43;;;22.27;;
22166;SDS011;11249;52.468;13.776;2022-12-18T07:35:22;55.43;;;21.53;;
22166;SDS011;11249;52.468;13.776;2022-12-18T07:37:56;53.23;;;22.73;;
22166;SDS011;11249;52.468;13.776;2022-12-18T07:40:22;54.20;;;21.63;;
22166;SDS011;11249;52.468;13.776;2022-12-18T07:42:56;55.57;;;22.30;;
22166;SDS011;11249;52.468;13.776;2022-12-18T07:45:22;53.87;;;21.87;;
22166;SDS011;11249;52.468;13.776;2022-12-18T07:47:49;59.93;;;24.77;;
22166;SDS011;11249;52.468;13.776;2022-12-18T07:50:22;55.57;;;22.07;;
22166;SDS011;11249;52.468;13.776;2022-12-18T07:52:56;54.03;;;22.23;;
22166;SDS011;11249;52.468;13.776;2022-12-18T07:55:22;54.67;;;22.37;;
22166;SDS011;11249;52.468;13.776;2022-12-18T07:57:49;57.67;;;22.97;;
22166;SDS011;11249;52.468;13.776;2022-12-18T08:00:26;59.07;;;23.63;;
22166;SDS011;11249;52.468;13.776;2022-12-18T08:02:53;64.20;;;23.23;;
22166;SDS011;11249;52.468;13.776;2022-12-18T08:05:20;65.30;;;26.87;;
22166;SDS011;11249;52.468;13.776;2022-12-18T08:07:54;60.73;;;23.80;;
22166;SDS011;11249;52.468;13.776;2022-12-18T08:10:27;58.97;;;22.60;;
22166;SDS011;11249;52.468;13.776;2022-12-18T08:12:53;66.00;;;24.97;;
22166;SDS011;11249;52.468;13.776;2022-12-18T08:15:40;71.23;;;24.03;;
22166;SDS011;11249;52.468;13.776;2022-12-18T08:18:07;57.63;;;24.30;;
22166;SDS011;11249;52.468;13.776;2022-12-18T08:20:44;64.77;;;26.13;;
22166;SDS011;11249;52.468;13.776;2022-12-18T08:23:10;66.15;;;23.73;;
22166;SDS011;11249;52.468;13.776;2022-12-18T08:25:44;66.43;;;25.50;;
22166;SDS011;11249;52.468;13.776;2022-12-18T08:28:10;68.00;;;25.53;;
22166;SDS011;11249;52.468;13.776;2022-12-18T08:30:37;62.67;;;22.50;;
22166;SDS011;11249;52.468;13.776;2022-12-18T08:33:11;69.20;;;24.53;;
22166;SDS011;11249;52.468;13.776;2022-12-18T08:35:38;66.23;;;24.27;;
22166;SDS011;11249;52.468;13.776;2022-12-18T08:38:11;60.33;;;24.17;;
22166;SDS011;11249;52.468;13.776;2022-12-18T08:41:09;65.18;;;23.33;;
22166;SDS011;11249;52.468;13.776;2022-12-18T08:43:44;68.93;;;25.17;;
22166;SDS011;11249;52.468;13.776;2022-12-18T08:46:34;63.63;;;24.43;;
22166;SDS011;11249;52.468;13.776;2022-12-18T08:49:09;63.75;;;23.70;;
22166;SDS011;11249;52.468;13.776;2022-12-18T08:51:37;61.23;;;24.00;;
22166;SDS011;11249;52.468;13.776;2022-12-18T08:54:04;64.17;;;24.77;;
22166;SDS011;11249;52.468;13.776;2022-12-18T08:56:38;63.80;;;25.17;;
22166;SDS011;11249;52.468;13.776;2022-12-18T08:59:04;68.63;;;23.60;;
22166;SDS011;11249;52.468;13.776;2022-12-18T09:01:45;65.20;;;24.03;;
22166;SDS011;11249;52.468;13.776;2022-12-18T09:04:13;67.67;;;25.27;;
22166;SDS011;11249;52.468;13.776;2022-12-18T09:06:47;58.23;;;25.23;;
22166;SDS011;11249;52.468;13.776;2022-12-18T09:09:13;57.00;;;23.20;;
22166;SDS011;11249;52.468;13.776;2022-12-18T09:11:47;68.27;;;24.00;;
22166;SDS011;11249;52.468;13.776;2022-12-18T09:14:26;55.90;;;23.33;;
22166;SDS011;11249;52.468;13.776;2022-12-18T09:19:33;60.27;;;22.23;;
22166;SDS011;11249;52.468;13.776;2022-12-18T09:22:06;56.57;;;23.07;;
22166;SDS011;11249;52.468;13.776;2022-12-18T09:24:39;63.93;;;23.87;;
22166;SDS011;11249;52.468;13.776;2022-12-18T09:27:12;55.20;;;22.67;;
22166;SDS011;11249;52.468;13.776;2022-12-18T09:29:38;60.00;;;22.80;;
22166;SDS011;11249;52.468;13.776;2022-12-18T09:32:05;52.77;;;21.13;;
22166;SDS011;11249;52.468;13.776;2022-12-18T09:34:44;51.73;;;20.33;;
22166;SDS011;11249;52.468;13.776;2022-12-18T09:37:17;48.90;;;19.87;;
22166;SDS011;11249;52.468;13.776;2022-12-18T09:39:44;52.70;;;21.90;;
22166;SDS011;11249;52.468;13.776;2022-12-18T09:42:20;53.87;;;20.43;;
22166;SDS011;11249;52.468;13.776;2022-12-18T09:44:54;49.17;;;20.00;;
22166;SDS011;11249;52.468;13.776;2022-12-18T09:47:28;44.67;;;19.20;;
22166;SDS011;11249;52.468;13.776;2022-12-18T09:50:46;45.83;;;20.20;;
22166;SDS011;11249;52.468;13.776;2022-12-18T09:52:58;55.03;;;21.07;;
22166;SDS011;11249;52.468;13.776;2022-12-18T10:00:35;44.30;;;18.20;;
22166;SDS011;11249;52.468;13.776;2022-12-18T10:03:09;49.90;;;19.47;;
22166;SDS011;11249;52.468;13.776;2022-12-18T10:05:52;41.77;;;18.13;;
22166;SDS011;11249;52.468;13.776;2022-12-18T10:11:46;34.23;;;15.13;;
22166;SDS011;11249;52.468;13.776;2022-12-18T10:14:37;38.07;;;15.83;;
22166;SDS011;11249;52.468;13.776;2022-12-18T10:20:40;34.10;;;15.35;;
22166;SDS011;11249;52.468;13.776;2022-12-18T10:23:24;38.93;;;16.37;;
22166;SDS011;11249;52.468;13.776;2022-12-18T10:26:13;37.07;;;16.73;;
22166;SDS011;11249;52.468;13.776;2022-12-18T10:28:50;38.07;;;16.23;;
22166;SDS011;11249;52.468;13.776;2022-12-18T10:31:30;45.23;;;19.67;;
22166;SDS011;11249;52.468;13.776;2022-12-18T10:34:04;43.57;;;18.10;;
22166;SDS011;11249;52.468;13.776;2022-12-18T10:36:41;44.73;;;18.03;;
22166;SDS011;11249;52.468;13.776;2022-12-18T10:39:21;36.40;;;17.50;;
22166;SDS011;11249;52.468;13.776;2022-12-18T10:42:09;43.33;;;17.87;;
22166;SDS011;11249;52.468;13.776;2022-12-18T10:44:45;43.80;;;18.80;;
22166;SDS011;11249;52.468;13.776;2022-12-18T10:47:33;43.53;;;19.23;;
22166;SDS011;11249;52.468;13.776;2022-12-18T10:50:00;46.20;;;19.90;;
22166;SDS011;11249;52.468;13.776;2022-12-18T10:52:27;42.97;;;19.57;;
22166;SDS011;11249;52.468;13.776;2022-12-18T10:55:13;43.83;;;19.30;;
22166;SDS011;11249;52.468;13.776;2022-12-18T10:57:43;46.90;;;22.33;;
22166;SDS011;11249;52.468;13.776;2022-12-18T11:00:21;43.63;;;20.60;;
22166;SDS011;11249;52.468;13.776;2022-12-18T11:02:58;46.97;;;20.40;;
22166;SDS011;11249;52.468;13.776;2022-12-18T11:05:34;42.00;;;20.60;;
22166;SDS011;11249;52.468;13.776;2022-12-18T11:08:11;43.87;;;20.30;;
22166;SDS011;11249;52.468;13.776;2022-12-18T11:10:48;41.45;;;18.20;;
22166;SDS011;11249;52.468;13.776;2022-12-18T11:13:23;46.10;;;21.50;;
22166;SDS011;11249;52.468;13.776;2022-12-18T11:16:04;44.93;;;20.50;;
22166;SDS011;11249;52.468;13.776;2022-12-18T11:18:38;47.93;;;19.33;;
22166;SDS011;11249;52.468;13.776;2022-12-18T11:23:33;45.23;;;21.80;;
22166;SDS011;11249;52.468;13.776;2022-12-18T11:26:08;44.47;;;19.67;;
22166;SDS011;11249;52.468;13.776;2022-12-18T11:28:39;45.20;;;22.30;;
22166;SDS011;11249;52.468;13.776;2022-12-18T11:33:52;45.77;;;20.70;;
22166;SDS011;11249;52.468;13.776;2022-12-18T11:36:50;45.77;;;22.30;;
22166;SDS011;11249;52.468;13.776;2022-12-18T11:39:39;41.70;;;21.13;;
22166;SDS011;11249;52.468;13.776;2022-12-18T11:42:18;48.43;;;23.03;;
22166;SDS011;11249;52.468;13.776;2022-12-18T11:44:58;44.37;;;22.47;;
22166;SDS011;11249;52.468;13.776;2022-12-18T11:47:49;46.87;;;22.80;;
22166;SDS011;11249;52.468;13.776;2022-12-18T11:50:24;47.20;;;21.93;;
22166;SDS011;11249;52.468;13.776;2022-12-18T11:52:59;48.57;;;23.47;;
22166;SDS011;11249;52.468;13.776;2022-12-18T11:55:53;44.73;;;22.63;;
22166;SDS011;11249;52.468;13.776;2022-12-18T12:16:15;42.53;;;20.07;;
22166;SDS011;11249;52.468;13.776;2022-12-18T12:21:41;38.33;;;17.57;;
22166;SDS011;11249;52.468;13.776;2022-12-18T12:24:27;39.47;;;17.55;;
22166;SDS011;11249;52.468;13.776;2022-12-18T12:27:19;39.63;;;18.63;;
22166;SDS011;11249;52.468;13.776;2022-12-18T12:32:32;39.35;;;19.15;;
22166;SDS011;11249;52.468;13.776;2022-12-18T12:40:39;44.63;;;19.33;;
22166;SDS011;11249;52.468;13.776;2022-12-18T12:46:16;37.33;;;17.27;;
22166;SDS011;11249;52.468;13.776;2022-12-18T12:48:53;42.07;;;18.30;;
22166;SDS011;11249;52.468;13.776;2022-12-18T12:51:33;43.07;;;18.33;;
22166;SDS011;11249;52.468;13.776;2022-12-18T12:54:15;39.13;;;17.93;;
22166;SDS011;11249;52.468;13.776;2022-12-18T12:56:54;42.63;;;18.67;;
22166;SDS011;11249;52.468;13.776;2022-12-18T12:59:42;36.37;;;17.93;;
22166;SDS011;11249;52.468;13.776;2022-12-18T13:05:24;42.77;;;19.17;;
22166;SDS011;11249;52.468;13.776;2022-12-18T13:08:24;47.40;;;19.43;;
22166;SDS011;11249;52.468;13.776;2022-12-18T13:10:57;42.27;;;18.70;;
22166;SDS011;11249;52.468;13.776;2022-12-18T13:13:51;39.20;;;17.30;;
22166;SDS011;11249;52.468;13.776;2022-12-18T13:16:29;39.77;;;16.97;;
22166;SDS011;11249;52.468;13.776;2022-12-18T13:19:02;36.07;;;18.67;;
22166;SDS011;11249;52.468;13.776;2022-12-18T13:21:35;40.87;;;19.70;;
22166;SDS011;11249;52.468;13.776;2022-12-18T13:24:14;42.73;;;18.97;;
22166;SDS011;11249;52.468;13.776;2022-12-18T13:26:56;43.27;;;19.23;;
22166;SDS011;11249;52.468;13.776;2022-12-18T13:32:23;43.63;;;19.50;;
22166;SDS011;11249;52.468;13.776;2022-12-18T13:38:22;47.13;;;21.17;;
22166;SDS011;11249;52.468;13.776;2022-12-18T13:41:23;46.83;;;20.30;;
22166;SDS011;11249;52.468;13.776;2022-12-18T13:46:51;40.73;;;20.40;;
22166;SDS011;11249;52.468;13.776;2022-12-18T13:52:14;40.17;;;20.47;;
22166;SDS011;11249;52.468;13.776;2022-12-18T13:54:55;37.40;;;20.10;;
22166;SDS011;11249;52.468;13.776;2022-12-18T13:57:32;40.80;;;18.53;;
22166;SDS011;11249;52.468;13.776;2022-12-18T14:02:49;37.73;;;21.40;;
22166;SDS011;11249;52.468;13.776;2022-12-18T14:05:30;40.90;;;21.07;;
22166;SDS011;11249;52.468;13.776;2022-12-18T14:08:02;48.97;;;21.13;;
22166;SDS011;11249;52.468;13.776;2022-12-18T14:10:41;36.50;;;19.65;;
22166;SDS011;11249;52.468;13.776;2022-12-18T14:13:17;35.43;;;18.33;;
22166;SDS011;11249;52.468;13.776;2022-12-18T14:16:00;36.90;;;19.73;;
22166;SDS011;11249;52.468;13.776;2022-12-18T14:18:46;34.73;;;18.27;;
22166;SDS011;11249;52.468;13.776;2022-12-18T14:21:38;33.77;;;17.43;;
22166;SDS011;11249;52.468;13.776;2022-12-18T14:26:44;40.50;;;20.48;;
22166;SDS011;11249;52.468;13.776;2022-12-18T14:32:05;43.53;;;20.80;;
22166;SDS011;11249;52.468;13.776;2022-12-18T14:34:43;42.83;;;21.27;;
22166;SDS011;11249;52.468;13.776;2022-12-18T14:37:20;39.20;;;20.30;;
22166;SDS011;11249;52.468;13.776;2022-12-18T14:39:59;37.77;;;20.13;;
22166;SDS011;11249;52.468;13.776;2022-12-18T14:42:36;44.90;;;21.23;;
22166;SDS011;11249;52.468;13.776;2022-12-18T14:50:39;42.33;;;21.97;;
22166;SDS011;11249;52.468;13.776;2022-12-18T14:53:23;45.73;;;20.97;;
22166;SDS011;11249;52.468;13.776;2022-12-18T14:56:15;44.73;;;22.27;;
22166;SDS011;11249;52.468;13.776;2022-12-18T14:59:04;43.07;;;22.33;;
22166;SDS011;11249;52.468;13.776;2022-12-18T15:04:42;42.13;;;22.53;;
22166;SDS011;11249;52.468;13.776;2022-12-18T15:07:18;40.90;;;21.03;;
22166;SDS011;11249;52.468;13.776;2022-12-18T15:18:28;36.57;;;18.87;;
22166;SDS011;11249;52.468;13.776;2022-12-18T15:21:08;39.73;;;19.83;;
22166;SDS011;11249;52.468;13.776;2022-12-18T15:26:17;39.67;;;19.80;;
22166;SDS011;11249;52.468;13.776;2022-12-18T15:28:46;36.67;;;19.42;;
22166;SDS011;11249;52.468;13.776;2022-12-18T15:38:54;37.37;;;19.30;;
22166;SDS011;11249;52.468;13.776;2022-12-18T15:41:34;40.97;;;19.37;;
22166;SDS011;11249;52.468;13.776;2022-12-18T15:44:22;39.10;;;20.40;;
22166;SDS011;11249;52.468;13.776;2022-12-18T15:46:50;34.33;;;19.67;;
22166;SDS011;11249;52.468;13.776;2022-12-18T15:49:23;37.97;;;19.57;;
22166;SDS011;11249;52.468;13.776;2022-12-18T15:51:51;37.07;;;19.63;;
22166;SDS011;11249;52.468;13.776;2022-12-18T15:54:27;40.90;;;20.30;;
22166;SDS011;11249;52.468;13.776;2022-12-18T15:57:12;35.80;;;18.70;;
22166;SDS011;11249;52.468;13.776;2022-12-18T15:59:58;38.90;;;19.90;;
22166;SDS011;11249;52.468;13.776;2022-12-18T16:02:24;36.93;;;20.37;;
22166;SDS011;11249;52.468;13.776;2022-12-18T16:04:59;39.43;;;20.80;;
22166;SDS011;11249;52.468;13.776;2022-12-18T16:07:27;38.10;;;21.10;;
22166;SDS011;11249;52.468;13.776;2022-12-18T16:10:02;38.70;;;21.03;;
22166;SDS011;11249;52.468;13.776;2022-12-18T16:12:37;40.03;;;19.67;;
22166;SDS011;11249;52.468;13.776;2022-12-18T16:15:05;41.07;;;21.23;;
22166;SDS011;11249;52.468;13.776;2022-12-18T16:17:56;37.73;;;19.30;;
22166;SDS011;11249;52.468;13.776;2022-12-18T16:20:23;37.37;;;18.63;;
22166;SDS011;11249;52.468;13.776;2022-12-18T16:22:57;34.77;;;18.83;;
22166;SDS011;11249;52.468;13.776;2022-12-18T16:25:24;36.47;;;20.23;;
22166;SDS011;11249;52.468;13.776;2022-12-18T16:27:53;36.87;;;19.43;;
22166;SDS011;11249;52.468;13.776;2022-12-18T16:30:30;37.67;;;18.93;;
22166;SDS011;11249;52.468;13.776;2022-12-18T16:33:05;38.87;;;18.43;;
22166;SDS011;11249;52.468;13.776;2022-12-18T16:35:32;36.93;;;18.97;;
22166;SDS011;11249;52.468;13.776;2022-12-18T16:38:06;42.40;;;21.83;;
22166;SDS011;11249;52.468;13.776;2022-12-18T16:40:39;41.07;;;20.87;;
22166;SDS011;11249;52.468;13.776;2022-12-18T16:43:25;39.30;;;20.27;;
22166;SDS011;11249;52.468;13.776;2022-12-18T16:45:59;43.27;;;20.40;;
22166;SDS011;11249;52.468;13.776;2022-12-18T16:48:32;38.07;;;20.77;;
22166;SDS011;11249;52.468;13.776;2022-12-18T16:51:03;37.40;;;21.37;;
22166;SDS011;11249;52.468;13.776;2022-12-18T16:53:37;38.37;;;19.70;;
22166;SDS011;11249;52.468;13.776;2022-12-18T16:56:05;39.90;;;19.77;;
22166;SDS011;11249;52.468;13.776;2022-12-18T16:58:32;41.93;;;21.07;;